Bantam, Connecticut
Current Conditions -  °F | °C
As of 2:50 PM on Sunday 25 Jan 2015 (Local Time) from KOXC Reporting Station
Scattered Clouds Scattered Clouds  
Wind Chill: 28°   Ceiling: Unl
Heat Index: 36°   Visibility: 10mi
Dew Point: 12°   Wind: 10mph
Humidity: 38%   Direction: 310°NW
Pressure: 29.75"   Gusts: 18mph
Location:  41.72°N, 73.24°W
Report Text: KOXC 251950Z 31009G16KT 260V360 10SM SCT250 02/M11 A2975
Loading
Personal Weather Stations






























Interactive Weather Map New forecast layout! Learn more

10-Day Weather Forecast

Advertisements
Track Severe Weather on mobile